createdAt,value
2022-10-30T00:01:20.397Z,101045.25
2022-10-30T00:03:50.053Z,101042.47
2022-10-30T00:08:52.640Z,101039.41
2022-10-30T00:11:20.052Z,101041.50
2022-10-30T00:13:47.411Z,101043.88
2022-10-30T00:16:14.765Z,101037.38
2022-10-30T00:18:43.505Z,101043.50
2022-10-30T00:21:14.138Z,101041.63
2022-10-30T00:23:52.533Z,101041.09
2022-10-30T00:26:22.089Z,101047.66
2022-10-30T00:28:53.690Z,101032.06
2022-10-30T00:31:22.447Z,101041.75
2022-10-30T00:33:51.779Z,101031.56
2022-10-30T00:36:20.010Z,101041.19
2022-10-30T00:38:47.292Z,101045.19
2022-10-30T00:41:20.271Z,101044.31
2022-10-30T00:43:47.868Z,101045.31
2022-10-30T00:46:27.253Z,101037.72
2022-10-30T00:49:02.285Z,101025.94
2022-10-30T00:51:33.727Z,101040.50
2022-10-30T00:54:04.482Z,101038.34
2022-10-30T00:56:32.927Z,101034.47
2022-10-30T00:59:05.692Z,101033.91
2022-10-30T01:01:38.328Z,101033.28
2022-10-30T01:04:07.411Z,101031.97
2022-10-30T01:06:39.242Z,101029.38
2022-10-30T01:09:06.940Z,101031.22
2022-10-30T01:11:34.661Z,101036.00
2022-10-30T01:14:06.624Z,101024.28
2022-10-30T01:17:02.253Z,101024.28
2022-10-30T01:19:59.126Z,101018.66
2022-10-30T01:23:03.038Z,101021.09
2022-10-30T01:25:48.036Z,101020.34
2022-10-30T01:28:29.594Z,101019.16
2022-10-30T01:31:23.998Z,101012.63
2022-10-30T01:34:20.525Z,101018.63
2022-10-30T01:37:00.781Z,101018.72
2022-10-30T01:39:33.311Z,101015.13
2022-10-30T01:42:09.803Z,101014.38
2022-10-30T01:44:38.292Z,101007.31
2022-10-30T01:47:33.892Z,101004.09
2022-10-30T01:50:37.490Z,101003.97
2022-10-30T01:53:29.000Z,100997.16
2022-10-30T01:56:21.190Z,101010.41
2022-10-30T01:59:01.165Z,101000.53
2022-10-30T02:01:31.714Z,100998.47
2022-10-30T02:04:00.173Z,100994.69
2022-10-30T02:06:27.638Z,101001.34
2022-10-30T02:08:58.572Z,100999.72
2022-10-30T02:11:27.876Z,101005.66
2022-10-30T02:13:57.954Z,100993.66
2022-10-30T02:16:27.704Z,100998.53
2022-10-30T02:18:56.793Z,100996.34
2022-10-30T02:21:25.824Z,100994.00
2022-10-30T02:23:54.074Z,100994.09
2022-10-30T02:26:21.567Z,100977.09
2022-10-30T02:28:48.988Z,100991.94
2022-10-30T02:31:19.678Z,100993.78
2022-10-30T02:33:51.649Z,100988.38
2022-10-30T02:36:20.097Z,100998.75
2022-10-30T02:38:52.472Z,100996.03
2022-10-30T02:41:19.805Z,100997.56
2022-10-30T02:43:47.242Z,100999.63
2022-10-30T02:46:14.607Z,100990.19
2022-10-30T02:48:42.110Z,101001.03
2022-10-30T02:51:09.733Z,101007.13
2022-10-30T02:53:41.123Z,101004.28
2022-10-30T02:56:14.878Z,101001.91
2022-10-30T02:58:45.910Z,100997.91
2022-10-30T03:01:18.699Z,100999.75
2022-10-30T03:03:47.225Z,100998.88
2022-10-30T03:06:19.668Z,100987.06
2022-10-30T03:08:47.085Z,100987.69
2022-10-30T03:11:17.439Z,100989.69
2022-10-30T03:13:46.539Z,100994.00
2022-10-30T03:16:20.105Z,100995.09
2022-10-30T03:18:48.572Z,100995.41
2022-10-30T03:21:20.628Z,100992.59
2022-10-30T03:23:50.739Z,100992.69
2022-10-30T03:26:19.894Z,100990.31
2022-10-30T03:29:19.783Z,100988.25
2022-10-30T03:31:47.404Z,100985.22
2022-10-30T03:34:19.515Z,100993.22
2022-10-30T03:36:46.905Z,100984.47
2022-10-30T03:39:17.459Z,100987.38
2022-10-30T03:41:46.736Z,100991.84
2022-10-30T03:44:14.298Z,100987.28
2022-10-30T03:46:41.638Z,100982.19
2022-10-30T03:49:26.747Z,100981.88
2022-10-30T03:51:57.375Z,100979.91
2022-10-30T03:54:26.439Z,100982.31
2022-10-30T03:56:53.986Z,100988.16
2022-10-30T03:59:23.099Z,100984.25
2022-10-30T04:02:10.465Z,100986.84
2022-10-30T04:04:38.095Z,100982.19
2022-10-30T04:07:05.495Z,100987.28
2022-10-30T04:09:34.668Z,100986.41
2022-10-30T04:12:02.028Z,100979.69
2022-10-30T04:14:29.396Z,100983.16
2022-10-30T04:16:56.825Z,100987.47
2022-10-30T04:19:24.142Z,100975.38
2022-10-30T04:21:51.610Z,100986.41
2022-10-30T04:24:19.296Z,100984.75
2022-10-30T04:26:50.184Z,100982.06
2022-10-30T04:29:18.886Z,100972.72
2022-10-30T04:31:46.235Z,100986.13
2022-10-30T04:34:14.307Z,100974.94
2022-10-30T04:36:41.610Z,100982.78
2022-10-30T04:39:08.941Z,100990.09
2022-10-30T04:41:36.401Z,100982.59
2022-10-30T04:44:12.824Z,100984.38
2022-10-30T04:46:40.463Z,100981.13
2022-10-30T04:49:15.971Z,100987.84
2022-10-30T04:51:43.660Z,100985.88
2022-10-30T04:54:10.996Z,100986.34
2022-10-30T04:56:38.801Z,100978.53
2022-10-30T04:59:06.389Z,100982.44
2022-10-30T05:01:33.968Z,100984.44
2022-10-30T05:04:04.004Z,100984.66
2022-10-30T05:06:33.488Z,100986.81
2022-10-30T05:09:01.321Z,100982.47
2022-10-30T05:11:37.905Z,100984.75
2022-10-30T05:14:05.652Z,100986.53
2022-10-30T05:16:37.378Z,100984.53
2022-10-30T05:19:07.203Z,100976.31
2022-10-30T05:21:35.496Z,100988.44
2022-10-30T05:24:02.961Z,100995.59
2022-10-30T05:26:39.532Z,100999.28
2022-10-30T05:29:07.002Z,100994.84
2022-10-30T05:31:35.976Z,100992.75
2022-10-30T05:34:23.425Z,100992.13
2022-10-30T05:36:53.250Z,100996.06
2022-10-30T05:39:21.492Z,100997.59
2022-10-30T05:41:50.960Z,100999.25
2022-10-30T05:44:29.179Z,100992.34
2022-10-30T05:47:08.204Z,100967.09
2022-10-30T05:49:35.972Z,100998.75
2022-10-30T05:52:06.667Z,100998.75
2022-10-30T05:54:34.111Z,100987.69
2022-10-30T05:57:08.249Z,100997.25
2022-10-30T05:59:37.767Z,100999.00
2022-10-30T06:02:05.166Z,100999.19
2022-10-30T06:04:32.569Z,101002.34
2022-10-30T06:07:03.012Z,100996.06
2022-10-30T06:09:30.388Z,101003.09
2022-10-30T06:12:16.303Z,101001.56
2022-10-30T06:14:52.277Z,101007.31
2022-10-30T06:17:19.722Z,100994.63
2022-10-30T06:19:57.044Z,101000.22
2022-10-30T06:22:58.502Z,100996.69
2022-10-30T06:25:39.444Z,100990.66
2022-10-30T06:28:28.567Z,101002.78
2022-10-30T06:30:56.181Z,101005.22
2022-10-30T06:33:24.596Z,101007.09
2022-10-30T06:35:55.178Z,101002.97
2022-10-30T06:38:23.460Z,101010.84
2022-10-30T06:40:52.073Z,101006.00
2022-10-30T06:43:39.612Z,101008.13
2022-10-30T06:46:20.217Z,101012.81
2022-10-30T06:48:47.717Z,101004.16
2022-10-30T06:51:17.387Z,101012.72
2022-10-30T06:53:49.084Z,101004.59
2022-10-30T06:56:35.005Z,100997.78
2022-10-30T06:59:20.903Z,101000.84
2022-10-30T07:01:57.470Z,100999.25
2022-10-30T07:04:38.021Z,101003.34
2022-10-30T07:07:05.547Z,101002.66
2022-10-30T07:09:32.836Z,100983.16
2022-10-30T07:12:06.783Z,100980.78
2022-10-30T07:14:50.403Z,100997.03
2022-10-30T07:17:38.565Z,100998.69
2022-10-30T07:20:12.241Z,100999.22
2022-10-30T07:22:39.740Z,101003.13
2022-10-30T07:25:08.550Z,101009.56
2022-10-30T07:27:54.259Z,101008.72
2022-10-30T07:30:30.333Z,101007.91
2022-10-30T07:33:16.479Z,101007.69
2022-10-30T07:36:02.462Z,101011.13
2022-10-30T07:38:51.553Z,101014.84
2022-10-30T07:41:50.762Z,101010.25
2022-10-30T07:44:36.632Z,101001.09
2022-10-30T07:47:27.125Z,101008.34
2022-10-30T07:50:03.315Z,101006.34
2022-10-30T07:52:33.454Z,101014.09
2022-10-30T07:55:02.352Z,101014.69
2022-10-30T07:57:49.541Z,101011.50
2022-10-30T08:00:22.832Z,101006.59
2022-10-30T08:03:02.639Z,101009.22
2022-10-30T08:05:50.397Z,101003.47
2022-10-30T08:08:42.046Z,100994.03
2022-10-30T08:11:24.534Z,101007.00
2022-10-30T08:13:53.598Z,100997.75
2022-10-30T08:16:21.074Z,100992.91
2022-10-30T08:18:51.776Z,100997.59
2022-10-30T08:21:22.486Z,100997.69
2022-10-30T08:24:01.107Z,100987.22
2022-10-30T08:26:31.111Z,100993.53
2022-10-30T08:29:13.181Z,100987.69
2022-10-30T08:31:41.692Z,100984.78
2022-10-30T08:34:40.949Z,100976.53
2022-10-30T08:37:08.892Z,100977.75
2022-10-30T08:39:36.503Z,100981.34
2022-10-30T08:42:39.371Z,100979.75
2022-10-30T08:45:11.071Z,100980.06
2022-10-30T08:48:04.961Z,100985.72
2022-10-30T08:50:37.185Z,100993.41
2022-10-30T08:53:07.572Z,100990.28
2022-10-30T08:55:36.166Z,100980.53
2022-10-30T08:58:08.545Z,100985.22
2022-10-30T09:00:37.273Z,100991.75
2022-10-30T09:03:27.553Z,100978.53
2022-10-30T09:06:16.939Z,100983.81
2022-10-30T09:09:10.398Z,100988.84
2022-10-30T09:11:51.590Z,100986.97
2022-10-30T09:14:22.522Z,100981.16
2022-10-30T09:16:49.954Z,100975.28
2022-10-30T09:19:20.285Z,100989.31
2022-10-30T09:21:50.371Z,100987.56
2022-10-30T09:24:19.146Z,100972.75
2022-10-30T09:27:07.369Z,100971.25
2022-10-30T09:29:44.829Z,100970.78
2022-10-30T09:32:24.231Z,100972.63
2022-10-30T09:35:01.236Z,100974.44
2022-10-30T09:37:37.508Z,100963.31
2022-10-30T09:40:08.955Z,100960.44
2022-10-30T09:42:51.181Z,100971.19
2022-10-30T09:45:59.736Z,100965.81
2022-10-30T09:49:04.637Z,100955.56
2022-10-30T09:51:54.401Z,100957.00
2022-10-30T09:54:28.514Z,100958.44
2022-10-30T09:57:41.209Z,100952.38
2022-10-30T10:00:13.171Z,100948.44
2022-10-30T10:03:18.315Z,100942.81
2022-10-30T10:06:15.787Z,100941.59
2022-10-30T10:09:27.560Z,100945.47
2022-10-30T10:12:31.382Z,100940.94
2022-10-30T10:15:01.204Z,100938.22
2022-10-30T10:17:37.331Z,100938.69
2022-10-30T10:20:28.546Z,100931.16
2022-10-30T10:22:59.819Z,100927.38
2022-10-30T10:25:30.878Z,100924.16
2022-10-30T10:28:26.854Z,100892.25
2022-10-30T10:31:10.927Z,100923.31
2022-10-30T10:34:00.252Z,100917.75
2022-10-30T10:36:48.387Z,100911.94
2022-10-30T10:39:27.469Z,100910.59
2022-10-30T10:42:01.928Z,100912.28
2022-10-30T10:44:53.209Z,100912.22
2022-10-30T10:47:48.404Z,100900.66
2022-10-30T10:50:21.168Z,100904.81
2022-10-30T10:53:03.304Z,100901.78
2022-10-30T10:55:36.920Z,100895.88
2022-10-30T10:58:15.095Z,100889.00
2022-10-30T11:00:47.237Z,100890.34
2022-10-30T11:03:53.039Z,100884.19
2022-10-30T11:06:27.720Z,100885.53
2022-10-30T11:09:15.269Z,100883.44
2022-10-30T11:11:44.440Z,100880.38
2022-10-30T11:14:17.494Z,100882.66
2022-10-30T11:17:13.396Z,100873.13
2022-10-30T11:19:41.632Z,100870.34
2022-10-30T11:22:24.730Z,100869.97
2022-10-30T11:24:52.214Z,100870.19
2022-10-30T11:27:23.503Z,100872.25
2022-10-30T11:30:02.915Z,100867.00
2022-10-30T11:32:32.516Z,100861.91
2022-10-30T11:35:09.697Z,100860.53
2022-10-30T11:37:41.799Z,100861.59
2022-10-30T11:40:12.793Z,100853.84
2022-10-30T11:43:05.959Z,100861.53
2022-10-30T11:45:38.136Z,100859.94
2022-10-30T11:48:15.056Z,100853.59
2022-10-30T11:50:47.766Z,100855.25
2022-10-30T11:53:34.261Z,100854.81
2022-10-30T11:56:03.068Z,100855.06
2022-10-30T11:58:34.791Z,100843.19
2022-10-30T12:01:06.735Z,100851.81
2022-10-30T12:03:41.228Z,100844.16
2022-10-30T12:06:11.189Z,100844.16
2022-10-30T12:08:39.713Z,100843.75
2022-10-30T12:11:10.921Z,100845.69
2022-10-30T12:13:41.519Z,100835.38
2022-10-30T12:16:19.665Z,100833.44
2022-10-30T12:19:05.364Z,100833.78
2022-10-30T12:21:44.974Z,100834.06
2022-10-30T12:24:31.855Z,100828.59
2022-10-30T12:27:04.082Z,100824.25
2022-10-30T12:30:15.048Z,100828.41
2022-10-30T12:33:01.145Z,100808.75
2022-10-30T12:35:40.601Z,100833.09
2022-10-30T12:38:32.179Z,100826.44
2022-10-30T12:41:21.313Z,100827.31
2022-10-30T12:44:00.662Z,100818.47
2022-10-30T12:46:31.746Z,100822.97
2022-10-30T12:49:21.250Z,100821.69
2022-10-30T12:51:51.900Z,100815.53
2022-10-30T12:54:31.113Z,100810.09
2022-10-30T12:57:12.660Z,100811.94
2022-10-30T12:59:58.145Z,100807.91
2022-10-30T13:02:58.193Z,100813.25
2022-10-30T13:05:40.563Z,100811.31
2022-10-30T13:08:27.989Z,100811.84
2022-10-30T13:11:37.488Z,100814.38
2022-10-30T13:14:13.679Z,100806.53
2022-10-30T13:16:41.361Z,100814.94
2022-10-30T13:19:14.011Z,100810.88
2022-10-30T13:21:58.838Z,100803.47
2022-10-30T13:24:42.247Z,100808.69
2022-10-30T13:27:42.102Z,100815.19
2022-10-30T13:30:21.449Z,100811.75
2022-10-30T13:33:28.204Z,100815.22
2022-10-30T13:36:18.608Z,100811.84
2022-10-30T13:39:17.192Z,100808.22
2022-10-30T13:42:18.190Z,100809.22
2022-10-30T13:45:20.627Z,100810.03
2022-10-30T13:48:21.973Z,100814.03
2022-10-30T13:51:27.736Z,100807.56
2022-10-30T13:54:09.274Z,100809.50
2022-10-30T13:56:37.554Z,100810.25
2022-10-30T13:59:16.860Z,100803.00
2022-10-30T14:02:25.941Z,100808.41
2022-10-30T14:05:15.802Z,100804.19
2022-10-30T14:08:06.354Z,100808.94
2022-10-30T14:11:08.087Z,100816.06
2022-10-30T14:13:47.859Z,100817.97
2022-10-30T14:16:41.351Z,100814.25
2022-10-30T14:19:11.487Z,100818.56
2022-10-30T14:21:50.456Z,100813.13
2022-10-30T14:24:22.020Z,100815.78
2022-10-30T14:26:53.272Z,100816.78
2022-10-30T14:29:44.370Z,100819.03
2022-10-30T14:32:14.469Z,100811.53
2022-10-30T14:34:57.710Z,100810.03
2022-10-30T14:37:27.731Z,100819.59
2022-10-30T14:40:19.686Z,100807.97
2022-10-30T14:42:58.350Z,100808.03
2022-10-30T14:45:26.027Z,100812.19
2022-10-30T14:48:17.232Z,100812.41
2022-10-30T14:51:00.542Z,100810.66
2022-10-30T14:53:27.775Z,100809.66
2022-10-30T14:59:21.175Z,100818.66
2022-10-30T15:02:10.008Z,100818.34
2022-10-30T15:05:09.780Z,100825.09
2022-10-30T15:07:55.981Z,100823.19
2022-10-30T15:10:32.537Z,100818.41
2022-10-30T15:13:22.675Z,100820.50
2022-10-30T15:16:08.569Z,100820.44
2022-10-30T15:18:35.993Z,100798.94
2022-10-30T15:21:08.939Z,100823.88
2022-10-30T15:23:42.043Z,100823.69
2022-10-30T15:26:23.523Z,100817.66
2022-10-30T15:28:53.016Z,100820.53
2022-10-30T15:31:27.443Z,100823.25
2022-10-30T15:33:57.994Z,100821.56
2022-10-30T15:36:35.708Z,100819.94
2022-10-30T15:39:11.972Z,100818.69
2022-10-30T15:41:56.603Z,100819.34
2022-10-30T15:44:30.974Z,100813.06
2022-10-30T15:47:01.578Z,100829.34
2022-10-30T15:49:39.067Z,100815.00
2022-10-30T15:52:20.055Z,100828.34
2022-10-30T15:54:52.583Z,100828.94
2022-10-30T15:58:01.085Z,100827.22
2022-10-30T16:00:25.697Z,100831.81
2022-10-30T16:03:20.248Z,100836.88
2022-10-30T16:05:47.715Z,100836.25
2022-10-30T16:08:24.766Z,100840.00
2022-10-30T16:11:03.782Z,100845.31
2022-10-30T16:13:32.497Z,100847.56
2022-10-30T16:16:03.066Z,100852.34
2022-10-30T16:18:36.966Z,100853.47
2022-10-30T16:21:08.736Z,100851.19
2022-10-30T16:23:42.053Z,100850.41
2022-10-30T16:26:43.262Z,100847.03
2022-10-30T16:29:13.749Z,100867.06
2022-10-30T16:31:44.901Z,100864.97
2022-10-30T16:34:21.949Z,100868.88
2022-10-30T16:36:53.458Z,100868.56
2022-10-30T16:39:21.932Z,100874.34
2022-10-30T16:41:50.201Z,100875.09
2022-10-30T16:44:31.050Z,100876.06
2022-10-30T16:47:22.884Z,100867.03
2022-10-30T16:49:59.759Z,100874.00
2022-10-30T16:52:33.847Z,100866.41
2022-10-30T16:55:24.981Z,100862.69
2022-10-30T16:57:58.759Z,100864.47
2022-10-30T17:00:36.409Z,100877.00
2022-10-30T17:03:10.760Z,100866.66
2022-10-30T17:05:43.887Z,100866.09
2022-10-30T17:08:20.742Z,100872.44
2022-10-30T17:11:04.931Z,100876.66
2022-10-30T17:13:35.617Z,100873.50
2022-10-30T17:16:33.781Z,100881.31
2022-10-30T17:19:27.584Z,100883.03
2022-10-30T17:21:55.024Z,100880.59
2022-10-30T17:24:49.132Z,100883.63
2022-10-30T17:27:53.636Z,100913.06
2022-10-30T17:30:32.103Z,100911.91
2022-10-30T17:33:00.060Z,100917.50
2022-10-30T17:35:28.961Z,100916.53
2022-10-30T17:37:59.752Z,100919.09
2022-10-30T17:40:30.673Z,100912.09
2022-10-30T17:42:59.402Z,100914.38
2022-10-30T17:45:29.977Z,100899.91
2022-10-30T17:47:58.396Z,100909.69
2022-10-30T17:50:25.950Z,100914.31
2022-10-30T17:52:53.381Z,100893.31
2022-10-30T17:55:26.024Z,100914.16
2022-10-30T17:57:53.668Z,100919.78
2022-10-30T18:00:22.582Z,100912.59
2022-10-30T18:02:50.182Z,100906.84
2022-10-30T18:05:22.851Z,100903.53
2022-10-30T18:10:23.282Z,100911.28
2022-10-30T18:12:51.210Z,100906.81
2022-10-30T18:15:37.024Z,100906.97
2022-10-30T18:18:04.650Z,100908.38
2022-10-30T18:20:33.786Z,100909.97
2022-10-30T18:23:01.973Z,100921.75
2022-10-30T18:25:35.894Z,100916.16
2022-10-30T18:28:03.509Z,100921.88
2022-10-30T18:30:31.196Z,100923.19
2022-10-30T18:32:58.970Z,100917.59
2022-10-30T18:35:31.680Z,100925.78
2022-10-30T18:37:59.585Z,100922.03
2022-10-30T18:40:27.538Z,100922.72
2022-10-30T18:42:55.208Z,100917.88
2022-10-30T18:45:29.754Z,100918.56
2022-10-30T18:47:58.955Z,100914.53
2022-10-30T18:50:30.238Z,100916.13
2022-10-30T18:53:00.776Z,100904.78
2022-10-30T18:55:38.856Z,100880.63
2022-10-30T18:58:07.525Z,100906.50
2022-10-30T19:00:58.003Z,100899.00
2022-10-30T19:03:24.405Z,100910.09
2022-10-30T19:05:52.581Z,100906.63
2022-10-30T19:08:19.915Z,100899.59
2022-10-30T19:10:48.925Z,100903.63
2022-10-30T19:13:22.784Z,100909.50
2022-10-30T19:15:59.010Z,100895.00
2022-10-30T19:18:28.772Z,100909.25
2022-10-30T19:21:05.852Z,100904.63
2022-10-30T19:23:35.519Z,100917.88
2022-10-30T19:26:03.015Z,100922.88
2022-10-30T19:28:31.122Z,100928.94
2022-10-30T19:30:58.892Z,100923.75
2022-10-30T19:33:27.555Z,100924.59
2022-10-30T19:35:57.677Z,100925.47
2022-10-30T19:38:25.177Z,100920.31
2022-10-30T19:40:52.593Z,100925.22
2022-10-30T19:43:20.351Z,100924.75
2022-10-30T19:45:51.376Z,100921.28
2022-10-30T19:51:12.273Z,100932.75
2022-10-30T19:53:40.690Z,100931.59
2022-10-30T19:56:11.001Z,100934.88
2022-10-30T19:58:38.464Z,100939.06
2022-10-30T20:01:05.985Z,100925.41
2022-10-30T20:03:33.463Z,100931.59
2022-10-30T20:06:00.811Z,100926.28
2022-10-30T20:08:28.544Z,100928.44
2022-10-30T20:10:58.217Z,100924.53
2022-10-30T20:13:27.217Z,100920.56
2022-10-30T20:16:00.603Z,100918.38
2022-10-30T20:18:32.590Z,100938.69
2022-10-30T20:21:02.377Z,100924.16
2022-10-30T20:23:30.210Z,100934.47
2022-10-30T20:26:03.272Z,100930.72
2022-10-30T20:28:35.561Z,100932.56
2022-10-30T20:31:03.635Z,100932.97
2022-10-30T20:33:31.334Z,100932.88
2022-10-30T20:35:59.028Z,100929.47
2022-10-30T20:38:33.143Z,100934.88
2022-10-30T20:41:02.477Z,100927.41
2022-10-30T20:43:39.499Z,100933.19
2022-10-30T20:46:10.532Z,100934.00
2022-10-30T20:48:38.241Z,100929.66
2022-10-30T20:51:08.449Z,100922.38
2022-10-30T20:53:35.917Z,100929.66
2022-10-30T20:56:05.026Z,100934.41
2022-10-30T20:58:33.067Z,100936.00
2022-10-30T21:01:00.691Z,100930.94
2022-10-30T21:03:29.763Z,100939.28
2022-10-30T21:06:00.070Z,100939.72
2022-10-30T21:08:34.482Z,100929.88
2022-10-30T21:11:04.202Z,100932.91
2022-10-30T21:13:35.431Z,100927.41
2022-10-30T21:16:06.666Z,100919.78
2022-10-30T21:18:35.837Z,100921.63
2022-10-30T21:21:07.122Z,100914.34
2022-10-30T21:23:35.155Z,100914.03
2022-10-30T21:26:05.902Z,100913.25
2022-10-30T21:28:33.801Z,100925.16
2022-10-30T21:31:10.651Z,100925.69
2022-10-30T21:33:39.028Z,100922.38
2022-10-30T21:36:12.651Z,100905.25
2022-10-30T21:38:42.562Z,100906.47
2022-10-30T21:41:15.894Z,100909.47
2022-10-30T21:43:44.049Z,100901.63
2022-10-30T21:46:13.324Z,100911.69
2022-10-30T21:48:40.871Z,100905.91
2022-10-30T21:51:15.882Z,100915.03
2022-10-30T21:53:44.500Z,100909.53
2022-10-30T21:56:20.610Z,100921.22
2022-10-30T21:58:48.421Z,100914.53
2022-10-30T22:01:19.357Z,100922.75
2022-10-30T22:03:47.318Z,100921.94
2022-10-30T22:06:16.861Z,100911.47
2022-10-30T22:08:49.239Z,100911.59
2022-10-30T22:11:17.034Z,100920.44
2022-10-30T22:13:45.043Z,100914.97
2022-10-30T22:16:14.367Z,100922.38
2022-10-30T22:18:43.990Z,100920.81
2022-10-30T22:21:13.296Z,100921.66
2022-10-30T22:23:41.739Z,100915.50
2022-10-30T22:26:18.297Z,100915.16
2022-10-30T22:28:45.923Z,100915.56
2022-10-30T22:31:16.867Z,100921.38
2022-10-30T22:33:44.376Z,100911.13
2022-10-30T22:36:16.610Z,100916.47
2022-10-30T22:38:44.801Z,100913.94
2022-10-30T22:41:18.890Z,100911.41
2022-10-30T22:43:49.327Z,100879.75
2022-10-30T22:46:18.699Z,100909.41
2022-10-30T22:48:46.635Z,100909.28
2022-10-30T22:51:16.658Z,100907.22
2022-10-30T22:53:54.588Z,100909.09
2022-10-30T22:56:24.812Z,100916.72
2022-10-30T22:58:53.515Z,100920.44
2022-10-30T23:01:23.736Z,100909.72
2022-10-30T23:03:52.493Z,100909.31
2022-10-30T23:06:21.180Z,100900.69
2022-10-30T23:08:49.273Z,100897.00
2022-10-30T23:11:16.638Z,100903.38
2022-10-30T23:13:47.939Z,100909.19
2022-10-30T23:16:21.329Z,100908.22
2022-10-30T23:18:51.575Z,100907.66
2022-10-30T23:21:22.071Z,100911.13
2022-10-30T23:23:50.081Z,100902.75
2022-10-30T23:26:28.612Z,100905.97
2022-10-30T23:28:57.111Z,100912.69
2022-10-30T23:31:32.722Z,100901.06
2022-10-30T23:34:00.656Z,100895.75
2022-10-30T23:36:29.660Z,100903.41
2022-10-30T23:38:59.171Z,100890.97
2022-10-30T23:41:28.940Z,100890.31
2022-10-30T23:43:58.531Z,100896.63
2022-10-30T23:46:26.709Z,100885.38
2022-10-30T23:48:55.964Z,100889.81
2022-10-30T23:51:24.054Z,100901.69
2022-10-30T23:53:51.740Z,100897.38
2022-10-30T23:56:19.435Z,100887.16
2022-10-30T23:58:48.195Z,100858.13
